sensor_id;sensor_type;location;lat;lon;timestamp;pressure;altitude;pressure_sealevel;temperature;humidity
13312;BME280;34033;48.672;9.376;2023-02-16T00:01:57;99610.94;;;4.41;65.86
13312;BME280;34033;48.672;9.376;2023-02-16T00:04:28;99626.25;;;4.39;65.61
13312;BME280;34033;48.672;9.376;2023-02-16T00:06:55;99625.59;;;4.33;66.18
13312;BME280;34033;48.672;9.376;2023-02-16T00:09:22;99616.28;;;4.29;66.80
13312;BME280;34033;48.672;9.376;2023-02-16T00:11:47;99609.44;;;4.27;67.04
13312;BME280;34033;48.672;9.376;2023-02-16T00:14:36;99606.97;;;4.25;67.13
13312;BME280;34033;48.672;9.376;2023-02-16T00:17:03;99611.69;;;4.25;67.00
13312;BME280;34033;48.672;9.376;2023-02-16T00:19:33;99614.28;;;4.21;65.96
13312;BME280;34033;48.672;9.376;2023-02-16T00:22:00;99611.16;;;4.14;65.86
13312;BME280;34033;48.672;9.376;2023-02-16T00:24:28;99616.84;;;4.09;66.52
13312;BME280;34033;48.672;9.376;2023-02-16T00:26:54;99611.16;;;4.05;65.58
13312;BME280;34033;48.672;9.376;2023-02-16T00:29:29;99607.53;;;3.96;66.53
13312;BME280;34033;48.672;9.376;2023-02-16T00:31:56;99605.38;;;3.93;66.67
13312;BME280;34033;48.672;9.376;2023-02-16T00:34:31;99612.56;;;3.94;66.87
13312;BME280;34033;48.672;9.376;2023-02-16T00:36:59;99608.53;;;4.00;67.84
13312;BME280;34033;48.672;9.376;2023-02-16T00:39:25;99603.97;;;4.04;66.54
13312;BME280;34033;48.672;9.376;2023-02-16T00:41:57;99610.19;;;4.10;66.46
13312;BME280;34033;48.672;9.376;2023-02-16T00:44:41;99600.91;;;4.06;66.46
13312;BME280;34033;48.672;9.376;2023-02-16T00:47:22;99598.28;;;4.01;65.94
13312;BME280;34033;48.672;9.376;2023-02-16T00:49:51;99600.72;;;4.02;66.58
13312;BME280;34033;48.672;9.376;2023-02-16T00:52:29;99609.34;;;4.01;65.57
13312;BME280;34033;48.672;9.376;2023-02-16T00:54:56;99604.63;;;4.01;65.48
13312;BME280;34033;48.672;9.376;2023-02-16T00:57:22;99596.94;;;3.98;65.56
13312;BME280;34033;48.672;9.376;2023-02-16T01:00:06;99587.00;;;3.97;65.45
13312;BME280;34033;48.672;9.376;2023-02-16T01:02:32;99603.44;;;3.94;66.18
13312;BME280;34033;48.672;9.376;2023-02-16T01:04:58;99603.06;;;3.87;66.04
13312;BME280;34033;48.672;9.376;2023-02-16T01:07:23;99608.13;;;3.85;66.36
13312;BME280;34033;48.672;9.376;2023-02-16T01:10:07;99610.91;;;3.85;66.12
13312;BME280;34033;48.672;9.376;2023-02-16T01:12:51;99610.25;;;3.88;65.59
13312;BME280;34033;48.672;9.376;2023-02-16T01:15:21;99599.84;;;3.85;66.11
13312;BME280;34033;48.672;9.376;2023-02-16T01:17:48;99599.84;;;3.85;66.05
13312;BME280;34033;48.672;9.376;2023-02-16T01:20:20;99602.91;;;3.83;65.81
13312;BME280;34033;48.672;9.376;2023-02-16T01:22:46;99602.53;;;3.76;65.02
13312;BME280;34033;48.672;9.376;2023-02-16T01:25:12;99598.63;;;3.77;66.56
13312;BME280;34033;48.672;9.376;2023-02-16T01:27:38;99597.50;;;3.78;64.93
13312;BME280;34033;48.672;9.376;2023-02-16T01:30:05;99603.34;;;3.76;65.08
13312;BME280;34033;48.672;9.376;2023-02-16T01:32:31;99605.63;;;3.74;65.91
13312;BME280;34033;48.672;9.376;2023-02-16T01:34:57;99609.19;;;3.75;67.15
13312;BME280;34033;48.672;9.376;2023-02-16T01:37:22;99602.88;;;3.74;65.95
13312;BME280;34033;48.672;9.376;2023-02-16T01:39:48;99606.44;;;3.75;66.67
13312;BME280;34033;48.672;9.376;2023-02-16T01:45:18;99602.38;;;3.72;66.44
13312;BME280;34033;48.672;9.376;2023-02-16T01:47:52;99600.56;;;3.68;65.49
13312;BME280;34033;48.672;9.376;2023-02-16T01:50:27;99596.28;;;3.62;66.53
13312;BME280;34033;48.672;9.376;2023-02-16T01:53:03;99600.81;;;3.58;67.13
13312;BME280;34033;48.672;9.376;2023-02-16T01:55:36;99595.28;;;3.58;67.44
13312;BME280;34033;48.672;9.376;2023-02-16T01:58:34;99606.84;;;3.60;67.79
13312;BME280;34033;48.672;9.376;2023-02-16T02:03:29;99609.50;;;3.43;66.80
13312;BME280;34033;48.672;9.376;2023-02-16T02:06:21;99606.84;;;3.38;66.56
13312;BME280;34033;48.672;9.376;2023-02-16T02:09:19;99595.50;;;3.39;67.38
13312;BME280;34033;48.672;9.376;2023-02-16T02:11:53;99588.53;;;3.42;67.53
13312;BME280;34033;48.672;9.376;2023-02-16T02:14:26;99591.47;;;3.45;65.92
13312;BME280;34033;48.672;9.376;2023-02-16T02:16:56;99589.28;;;3.33;66.33
13312;BME280;34033;48.672;9.376;2023-02-16T02:19:21;99581.16;;;3.37;66.36
13312;BME280;34033;48.672;9.376;2023-02-16T02:37:08;99579.16;;;3.07;67.50
13312;BME280;34033;48.672;9.376;2023-02-16T02:45:29;99564.41;;;3.11;69.09
13312;BME280;34033;48.672;9.376;2023-02-16T02:47:56;99575.03;;;3.18;68.89
13312;BME280;34033;48.672;9.376;2023-02-16T02:52:57;99572.75;;;3.20;68.57
13312;BME280;34033;48.672;9.376;2023-02-16T02:55:25;99568.03;;;3.20;68.59
13312;BME280;34033;48.672;9.376;2023-02-16T02:58:09;99564.16;;;3.21;68.01
13312;BME280;34033;48.672;9.376;2023-02-16T03:00:54;99564.16;;;3.21;68.24
13312;BME280;34033;48.672;9.376;2023-02-16T03:03:35;99571.06;;;3.10;68.63
13312;BME280;34033;48.672;9.376;2023-02-16T03:06:24;99570.63;;;2.94;69.30
13312;BME280;34033;48.672;9.376;2023-02-16T03:08:58;99569.94;;;2.89;69.51
13312;BME280;34033;48.672;9.376;2023-02-16T03:11:27;99571.44;;;2.95;69.99
13312;BME280;34033;48.672;9.376;2023-02-16T03:14:18;99561.38;;;2.99;70.61
13312;BME280;34033;48.672;9.376;2023-02-16T03:16:51;99570.81;;;2.98;69.13
13312;BME280;34033;48.672;9.376;2023-02-16T03:19:39;99565.63;;;2.97;69.70
13312;BME280;34033;48.672;9.376;2023-02-16T03:22:25;99560.78;;;3.02;70.13
13312;BME280;34033;48.672;9.376;2023-02-16T03:25:08;99565.19;;;3.03;70.28
13312;BME280;34033;48.672;9.376;2023-02-16T03:27:54;99556.56;;;3.05;68.17
13312;BME280;34033;48.672;9.376;2023-02-16T03:30:41;99566.47;;;3.06;68.37
13312;BME280;34033;48.672;9.376;2023-02-16T03:33:06;99565.06;;;3.08;69.34
13312;BME280;34033;48.672;9.376;2023-02-16T03:35:32;99564.22;;;3.08;69.11
13312;BME280;34033;48.672;9.376;2023-02-16T03:37:58;99576.03;;;3.00;68.91
13312;BME280;34033;48.672;9.376;2023-02-16T03:40:25;99567.13;;;3.03;68.78
13312;BME280;34033;48.672;9.376;2023-02-16T03:42:54;99567.94;;;3.03;68.98
13312;BME280;34033;48.672;9.376;2023-02-16T03:45:20;99569.38;;;3.01;67.70
13312;BME280;34033;48.672;9.376;2023-02-16T03:47:46;99573.78;;;3.02;68.11
13312;BME280;34033;48.672;9.376;2023-02-16T03:50:12;99569.38;;;3.01;68.93
13312;BME280;34033;48.672;9.376;2023-02-16T03:52:37;99573.47;;;3.03;67.86
13312;BME280;34033;48.672;9.376;2023-02-16T03:55:03;99573.78;;;3.02;67.44
13312;BME280;34033;48.672;9.376;2023-02-16T03:57:28;99578.78;;;3.00;67.63
13312;BME280;34033;48.672;9.376;2023-02-16T03:59:53;99573.38;;;2.94;66.78
13312;BME280;34033;48.672;9.376;2023-02-16T04:02:19;99571.88;;;2.88;66.74
13312;BME280;34033;48.672;9.376;2023-02-16T04:04:45;99578.84;;;2.86;67.34
13312;BME280;34033;48.672;9.376;2023-02-16T04:07:11;99580.09;;;2.80;67.19
13312;BME280;34033;48.672;9.376;2023-02-16T04:09:36;99589.50;;;2.79;67.44
13312;BME280;34033;48.672;9.376;2023-02-16T04:12:02;99585.78;;;2.83;67.85
13312;BME280;34033;48.672;9.376;2023-02-16T04:14:46;99589.78;;;3.58;88.45
13312;BME280;34033;48.672;9.376;2023-02-16T04:17:11;99589.66;;;3.41;75.34
13312;BME280;34033;48.672;9.376;2023-02-16T04:19:37;99601.47;;;3.32;68.41
13312;BME280;34033;48.672;9.376;2023-02-16T04:22:02;99600.59;;;3.23;68.08
13312;BME280;34033;48.672;9.376;2023-02-16T04:24:27;99601.03;;;3.17;68.93
13312;BME280;34033;48.672;9.376;2023-02-16T04:26:53;99602.44;;;3.14;69.05
13312;BME280;34033;48.672;9.376;2023-02-16T04:29:18;99602.56;;;3.09;69.15
13312;BME280;34033;48.672;9.376;2023-02-16T04:31:43;99607.91;;;3.06;67.79
13312;BME280;34033;48.672;9.376;2023-02-16T04:34:09;99595.56;;;3.03;67.12
13312;BME280;34033;48.672;9.376;2023-02-16T04:36:34;99597.81;;;3.01;67.58
13312;BME280;34033;48.672;9.376;2023-02-16T04:38:59;99597.13;;;2.96;66.87
13312;BME280;34033;48.672;9.376;2023-02-16T04:41:25;99595.31;;;2.91;67.52
13312;BME280;34033;48.672;9.376;2023-02-16T04:43:51;99592.78;;;2.81;66.72
13312;BME280;34033;48.672;9.376;2023-02-16T04:46:16;99600.44;;;2.70;66.83
13312;BME280;34033;48.672;9.376;2023-02-16T04:48:43;99599.13;;;2.68;67.24
13312;BME280;34033;48.672;9.376;2023-02-16T04:51:08;99602.41;;;2.70;67.63
13312;BME280;34033;48.672;9.376;2023-02-16T04:53:34;99606.50;;;2.72;67.61
13312;BME280;34033;48.672;9.376;2023-02-16T04:55:59;99609.38;;;2.67;67.36
13312;BME280;34033;48.672;9.376;2023-02-16T04:58:24;99608.53;;;2.67;67.30
13312;BME280;34033;48.672;9.376;2023-02-16T05:00:49;99603.88;;;2.54;67.78
13312;BME280;34033;48.672;9.376;2023-02-16T05:03:15;99609.06;;;2.55;68.28
13312;BME280;34033;48.672;9.376;2023-02-16T05:05:40;99609.19;;;2.50;68.06
13312;BME280;34033;48.672;9.376;2023-02-16T05:08:06;99591.41;;;2.56;68.90
13312;BME280;34033;48.672;9.376;2023-02-16T05:10:31;99590.66;;;3.00;73.38
13312;BME280;34033;48.672;9.376;2023-02-16T05:12:56;99593.16;;;3.55;72.15
13312;BME280;34033;48.672;9.376;2023-02-16T05:15:40;99588.69;;;3.76;66.78
13312;BME280;34033;48.672;9.376;2023-02-16T05:18:06;99587.13;;;3.84;64.71
13312;BME280;34033;48.672;9.376;2023-02-16T05:20:31;99585.53;;;3.91;63.78
13312;BME280;34033;48.672;9.376;2023-02-16T05:23:15;99594.63;;;3.92;63.14
13312;BME280;34033;48.672;9.376;2023-02-16T05:25:40;99593.50;;;3.93;62.23
13312;BME280;34033;48.672;9.376;2023-02-16T05:28:05;99610.44;;;3.91;62.77
13312;BME280;34033;48.672;9.376;2023-02-16T05:30:31;99609.34;;;4.01;66.36
13312;BME280;34033;48.672;9.376;2023-02-16T05:32:56;99603.34;;;4.07;63.57
13312;BME280;34033;48.672;9.376;2023-02-16T05:35:21;99603.00;;;4.00;63.89
13312;BME280;34033;48.672;9.376;2023-02-16T05:37:47;99610.31;;;3.96;62.41
13312;BME280;34033;48.672;9.376;2023-02-16T05:40:12;99615.84;;;3.96;63.43
13312;BME280;34033;48.672;9.376;2023-02-16T05:42:38;99619.50;;;3.83;62.52
13312;BME280;34033;48.672;9.376;2023-02-16T05:45:03;99612.47;;;3.77;62.47
13312;BME280;34033;48.672;9.376;2023-02-16T05:47:29;99618.31;;;3.75;63.37
13312;BME280;34033;48.672;9.376;2023-02-16T05:49:54;99631.31;;;3.75;63.03
13312;BME280;34033;48.672;9.376;2023-02-16T05:52:19;99623.66;;;3.72;63.53
13312;BME280;34033;48.672;9.376;2023-02-16T05:54:45;99608.72;;;3.73;63.23
13312;BME280;34033;48.672;9.376;2023-02-16T05:57:10;99623.63;;;3.63;63.44
13312;BME280;34033;48.672;9.376;2023-02-16T05:59:35;99624.78;;;3.71;62.65
13312;BME280;34033;48.672;9.376;2023-02-16T06:02:01;99627.56;;;3.71;62.85
13312;BME280;34033;48.672;9.376;2023-02-16T06:04:26;99629.47;;;3.62;62.47
13312;BME280;34033;48.672;9.376;2023-02-16T06:06:52;99624.56;;;3.59;62.88
13312;BME280;34033;48.672;9.376;2023-02-16T06:09:18;99629.09;;;3.55;63.65
13312;BME280;34033;48.672;9.376;2023-02-16T06:11:43;99633.75;;;3.46;63.79
13312;BME280;34033;48.672;9.376;2023-02-16T06:14:18;99635.19;;;3.43;63.20
13312;BME280;34033;48.672;9.376;2023-02-16T06:16:45;99628.97;;;3.38;63.19
13312;BME280;34033;48.672;9.376;2023-02-16T06:19:11;99629.63;;;3.34;63.29
13312;BME280;34033;48.672;9.376;2023-02-16T06:21:38;99637.69;;;3.31;63.77
13312;BME280;34033;48.672;9.376;2023-02-16T06:24:05;99645.25;;;3.39;64.24
13312;BME280;34033;48.672;9.376;2023-02-16T06:26:30;99643.34;;;3.48;63.63
13312;BME280;34033;48.672;9.376;2023-02-16T06:28:56;99652.97;;;3.51;63.33
13312;BME280;34033;48.672;9.376;2023-02-16T06:31:21;99652.91;;;3.42;63.22
13312;BME280;34033;48.672;9.376;2023-02-16T06:33:49;99659.63;;;3.50;63.72
13312;BME280;34033;48.672;9.376;2023-02-16T06:36:14;99663.53;;;3.49;63.53
13312;BME280;34033;48.672;9.376;2023-02-16T06:38:40;99658.63;;;3.46;63.32
13312;BME280;34033;48.672;9.376;2023-02-16T06:41:06;99665.59;;;3.43;62.89
13312;BME280;34033;48.672;9.376;2023-02-16T06:43:31;99663.34;;;3.45;63.56
13312;BME280;34033;48.672;9.376;2023-02-16T06:45:57;99667.41;;;3.48;63.84
13312;BME280;34033;48.672;9.376;2023-02-16T06:48:22;99658.63;;;3.46;63.80
13312;BME280;34033;48.672;9.376;2023-02-16T06:50:48;99653.28;;;3.49;63.87
13312;BME280;34033;48.672;9.376;2023-02-16T06:53:13;99654.09;;;3.50;62.76
13312;BME280;34033;48.672;9.376;2023-02-16T06:55:38;99655.88;;;3.46;63.58
13312;BME280;34033;48.672;9.376;2023-02-16T06:58:05;99662.41;;;3.50;62.62
13312;BME280;34033;48.672;9.376;2023-02-16T07:00:31;99659.38;;;3.38;62.64
13312;BME280;34033;48.672;9.376;2023-02-16T07:02:57;99661.13;;;3.33;62.47
13312;BME280;34033;48.672;9.376;2023-02-16T07:05:23;99656.25;;;3.30;62.88
13312;BME280;34033;48.672;9.376;2023-02-16T07:07:48;99660.84;;;3.35;62.68
13312;BME280;34033;48.672;9.376;2023-02-16T07:10:14;99665.84;;;3.33;62.61
13312;BME280;34033;48.672;9.376;2023-02-16T07:12:39;99659.19;;;3.34;62.25
13312;BME280;34033;48.672;9.376;2023-02-16T07:15:05;99668.31;;;3.34;62.67
13312;BME280;34033;48.672;9.376;2023-02-16T07:17:31;99676.28;;;3.36;62.32
13312;BME280;34033;48.672;9.376;2023-02-16T07:19:56;99674.78;;;3.30;62.09
13312;BME280;34033;48.672;9.376;2023-02-16T07:22:21;99678.09;;;3.18;62.95
13312;BME280;34033;48.672;9.376;2023-02-16T07:24:47;99673.16;;;3.15;63.14
13312;BME280;34033;48.672;9.376;2023-02-16T07:27:12;99672.97;;;3.12;63.87
13312;BME280;34033;48.672;9.376;2023-02-16T07:29:37;99678.22;;;3.13;64.03
13312;BME280;34033;48.672;9.376;2023-02-16T07:32:03;99676.56;;;3.12;64.16
13312;BME280;34033;48.672;9.376;2023-02-16T07:34:29;99679.72;;;3.19;64.77
13312;BME280;34033;48.672;9.376;2023-02-16T07:36:54;99676.56;;;3.12;64.88
13312;BME280;34033;48.672;9.376;2023-02-16T07:39:20;99676.31;;;3.22;65.49
13312;BME280;34033;48.672;9.376;2023-02-16T07:41:45;99681.63;;;3.32;65.17
13312;BME280;34033;48.672;9.376;2023-02-16T07:44:10;99678.94;;;3.41;64.79
13312;BME280;34033;48.672;9.376;2023-02-16T07:46:36;99688.09;;;3.50;64.74
13312;BME280;34033;48.672;9.376;2023-02-16T07:49:01;99684.91;;;3.57;64.16
13312;BME280;34033;48.672;9.376;2023-02-16T07:51:29;99681.94;;;3.53;64.49
13312;BME280;34033;48.672;9.376;2023-02-16T07:53:59;99679.00;;;3.50;64.90
13312;BME280;34033;48.672;9.376;2023-02-16T07:56:27;99684.00;;;3.48;64.72
13312;BME280;34033;48.672;9.376;2023-02-16T07:58:56;99682.06;;;3.48;65.28
13312;BME280;34033;48.672;9.376;2023-02-16T08:01:23;99682.13;;;3.57;65.15
13312;BME280;34033;48.672;9.376;2023-02-16T08:03:49;99685.25;;;3.64;65.36
13312;BME280;34033;48.672;9.376;2023-02-16T08:06:15;99684.81;;;3.70;65.27
13312;BME280;34033;48.672;9.376;2023-02-16T08:08:42;99685.50;;;3.76;65.96
13312;BME280;34033;48.672;9.376;2023-02-16T08:11:10;99683.28;;;3.87;65.84
13312;BME280;34033;48.672;9.376;2023-02-16T08:13:36;99683.41;;;4.04;65.90
13312;BME280;34033;48.672;9.376;2023-02-16T08:16:01;99696.66;;;4.15;65.77
13312;BME280;34033;48.672;9.376;2023-02-16T08:18:29;99695.69;;;4.20;65.05
13312;BME280;34033;48.672;9.376;2023-02-16T08:20:54;99703.25;;;4.28;64.84
13312;BME280;34033;48.672;9.376;2023-02-16T08:23:21;99699.69;;;4.36;64.81
13312;BME280;34033;48.672;9.376;2023-02-16T08:25:46;99684.75;;;4.46;64.28
13312;BME280;34033;48.672;9.376;2023-02-16T08:28:12;99688.00;;;4.48;64.15
13312;BME280;34033;48.672;9.376;2023-02-16T08:30:38;99687.03;;;4.52;64.46
13312;BME280;34033;48.672;9.376;2023-02-16T08:33:04;99690.66;;;4.61;64.45
13312;BME280;34033;48.672;9.376;2023-02-16T08:35:30;99690.53;;;4.75;64.90
13312;BME280;34033;48.672;9.376;2023-02-16T08:38:00;99693.00;;;4.85;65.42
13312;BME280;34033;48.672;9.376;2023-02-16T08:40:26;99691.25;;;4.89;64.91
13312;BME280;34033;48.672;9.376;2023-02-16T08:42:51;99687.50;;;4.94;65.07
13312;BME280;34033;48.672;9.376;2023-02-16T08:45:17;99693.38;;;5.01;65.02
13312;BME280;34033;48.672;9.376;2023-02-16T08:47:42;99688.16;;;5.08;64.85
13312;BME280;34033;48.672;9.376;2023-02-16T08:50:08;99687.06;;;5.18;64.90
13312;BME280;34033;48.672;9.376;2023-02-16T08:52:34;99689.50;;;5.28;64.26
13312;BME280;34033;48.672;9.376;2023-02-16T08:55:00;99678.41;;;5.36;64.35
13312;BME280;34033;48.672;9.376;2023-02-16T08:57:25;99684.25;;;5.52;64.11
13312;BME280;34033;48.672;9.376;2023-02-16T08:59:50;99685.09;;;5.61;63.77
13312;BME280;34033;48.672;9.376;2023-02-16T09:02:35;99677.91;;;5.77;63.10
13312;BME280;34033;48.672;9.376;2023-02-16T09:05:01;99676.22;;;5.85;62.75
13312;BME280;34033;48.672;9.376;2023-02-16T09:07:26;99668.13;;;5.89;62.71
13312;BME280;34033;48.672;9.376;2023-02-16T09:09:52;99675.09;;;6.03;62.70
13312;BME280;34033;48.672;9.376;2023-02-16T09:12:17;99669.34;;;6.17;62.27
13312;BME280;34033;48.672;9.376;2023-02-16T09:14:42;99671.78;;;6.18;61.69
13312;BME280;34033;48.672;9.376;2023-02-16T09:17:08;99669.50;;;6.58;63.47
13312;BME280;34033;48.672;9.376;2023-02-16T09:19:33;99672.69;;;6.78;62.04
13312;BME280;34033;48.672;9.376;2023-02-16T09:21:59;99661.16;;;6.88;60.90
13312;BME280;34033;48.672;9.376;2023-02-16T09:24:25;99663.22;;;6.99;60.63
13312;BME280;34033;48.672;9.376;2023-02-16T09:26:51;99658.88;;;7.10;60.72
13312;BME280;34033;48.672;9.376;2023-02-16T09:29:16;99660.13;;;7.22;60.23
13312;BME280;34033;48.672;9.376;2023-02-16T09:31:42;99658.41;;;7.29;59.42
13312;BME280;34033;48.672;9.376;2023-02-16T09:36:37;99655.59;;;7.50;59.45
13312;BME280;34033;48.672;9.376;2023-02-16T09:39:02;99648.81;;;7.60;59.15
13312;BME280;34033;48.672;9.376;2023-02-16T09:46:42;99650.16;;;7.74;58.65
13312;BME280;34033;48.672;9.376;2023-02-16T09:49:31;99648.91;;;7.84;58.68
13312;BME280;34033;48.672;9.376;2023-02-16T09:52:28;99655.44;;;8.00;58.62
13312;BME280;34033;48.672;9.376;2023-02-16T09:54:58;99646.91;;;8.17;58.49
13312;BME280;34033;48.672;9.376;2023-02-16T09:57:40;99646.91;;;8.17;57.94
13312;BME280;34033;48.672;9.376;2023-02-16T10:03:06;99646.69;;;8.22;57.53
13312;BME280;34033;48.672;9.376;2023-02-16T10:05:54;99638.91;;;8.28;57.48
13312;BME280;34033;48.672;9.376;2023-02-16T10:08:29;99640.22;;;8.30;57.76
13312;BME280;34033;48.672;9.376;2023-02-16T10:14:04;99634.91;;;8.62;57.04
13312;BME280;34033;48.672;9.376;2023-02-16T10:16:38;99629.31;;;8.86;57.00
13312;BME280;34033;48.672;9.376;2023-02-16T10:19:39;99629.25;;;9.23;56.63
13312;BME280;34033;48.672;9.376;2023-02-16T10:22:15;99625.94;;;9.33;55.42
13312;BME280;34033;48.672;9.376;2023-02-16T10:24:48;99624.84;;;9.49;55.84
13312;BME280;34033;48.672;9.376;2023-02-16T10:27:20;99625.06;;;9.56;54.95
13312;BME280;34033;48.672;9.376;2023-02-16T10:29:46;99618.72;;;9.72;55.53
13312;BME280;34033;48.672;9.376;2023-02-16T10:32:31;99611.97;;;9.88;54.98
13312;BME280;34033;48.672;9.376;2023-02-16T10:35:14;99614.53;;;10.09;54.83
13312;BME280;34033;48.672;9.376;2023-02-16T10:38:02;99609.91;;;10.29;54.30
13312;BME280;34033;48.672;9.376;2023-02-16T10:40:57;99608.91;;;10.37;54.04
13312;BME280;34033;48.672;9.376;2023-02-16T10:46:04;99590.31;;;10.60;53.64
13312;BME280;34033;48.672;9.376;2023-02-16T10:48:30;99588.22;;;10.73;53.19
13312;BME280;34033;48.672;9.376;2023-02-16T10:55:56;99587.81;;;10.90;51.84
13312;BME280;34033;48.672;9.376;2023-02-16T10:58:25;99587.00;;;10.90;50.22
13312;BME280;34033;48.672;9.376;2023-02-16T11:01:03;99582.00;;;10.99;49.56
13312;BME280;34033;48.672;9.376;2023-02-16T11:03:42;99577.75;;;11.05;49.04
13312;BME280;34033;48.672;9.376;2023-02-16T11:06:26;99581.59;;;11.16;49.25
13312;BME280;34033;48.672;9.376;2023-02-16T11:08:58;99572.47;;;11.19;47.33
13312;BME280;34033;48.672;9.376;2023-02-16T11:11:43;99567.63;;;11.35;48.03
13312;BME280;34033;48.672;9.376;2023-02-16T11:14:24;99559.97;;;11.51;46.90
13312;BME280;34033;48.672;9.376;2023-02-16T11:17:08;99563.91;;;11.69;46.07
13312;BME280;34033;48.672;9.376;2023-02-16T11:19:36;99552.19;;;11.83;45.08
13312;BME280;34033;48.672;9.376;2023-02-16T11:22:02;99548.31;;;11.91;45.30
13312;BME280;34033;48.672;9.376;2023-02-16T11:29:27;99537.69;;;12.23;44.03
13312;BME280;34033;48.672;9.376;2023-02-16T11:31:54;99530.63;;;12.33;43.84
13312;BME280;34033;48.672;9.376;2023-02-16T11:34:35;99541.25;;;12.46;42.91
13312;BME280;34033;48.672;9.376;2023-02-16T11:37:12;99528.28;;;12.61;42.14
13312;BME280;34033;48.672;9.376;2023-02-16T11:39:40;99523.16;;;12.67;42.33
13312;BME280;34033;48.672;9.376;2023-02-16T11:44:53;99520.47;;;13.04;42.21
13312;BME280;34033;48.672;9.376;2023-02-16T11:47:23;99512.22;;;13.18;41.38
13312;BME280;34033;48.672;9.376;2023-02-16T11:50:20;99514.31;;;13.24;41.17
13312;BME280;34033;48.672;9.376;2023-02-16T11:52:48;99512.13;;;13.41;41.45
13312;BME280;34033;48.672;9.376;2023-02-16T11:55:29;99505.44;;;13.52;40.58
13312;BME280;34033;48.672;9.376;2023-02-16T11:58:21;99506.69;;;13.58;40.84
13312;BME280;34033;48.672;9.376;2023-02-16T12:12:08;99478.09;;;13.86;40.24
13312;BME280;34033;48.672;9.376;2023-02-16T12:14:58;99473.88;;;14.10;40.17
13312;BME280;34033;48.672;9.376;2023-02-16T12:17:32;99467.97;;;14.26;40.42
13312;BME280;34033;48.672;9.376;2023-02-16T12:22:50;99456.16;;;14.57;39.90
13312;BME280;34033;48.672;9.376;2023-02-16T12:25:38;99449.00;;;14.74;39.65
13312;BME280;34033;48.672;9.376;2023-02-16T12:28:26;99453.94;;;14.87;39.73
13312;BME280;34033;48.672;9.376;2023-02-16T12:36:46;99447.56;;;15.08;38.80
13312;BME280;34033;48.672;9.376;2023-02-16T12:39:17;99446.72;;;15.00;39.24
13312;BME280;34033;48.672;9.376;2023-02-16T12:42:02;99436.72;;;15.14;38.98
13312;BME280;34033;48.672;9.376;2023-02-16T12:44:39;99427.09;;;15.15;39.03
13312;BME280;34033;48.672;9.376;2023-02-16T12:47:12;99425.06;;;15.19;39.02
13312;BME280;34033;48.672;9.376;2023-02-16T12:50:00;99419.88;;;15.21;38.53
13312;BME280;34033;48.672;9.376;2023-02-16T12:53:23;99419.47;;;15.29;38.67
13312;BME280;34033;48.672;9.376;2023-02-16T12:56:01;99418.69;;;15.36;38.76
13312;BME280;34033;48.672;9.376;2023-02-16T12:58:35;99411.84;;;15.44;38.83
13312;BME280;34033;48.672;9.376;2023-02-16T13:01:11;99408.28;;;15.72;38.86
13312;BME280;34033;48.672;9.376;2023-02-16T13:03:51;99399.44;;;15.80;37.92
13312;BME280;34033;48.672;9.376;2023-02-16T13:06:35;99388.16;;;15.84;38.05
13312;BME280;34033;48.672;9.376;2023-02-16T13:09:27;99384.94;;;15.68;38.06
13312;BME280;34033;48.672;9.376;2023-02-16T13:12:12;99388.91;;;15.42;38.38
13312;BME280;34033;48.672;9.376;2023-02-16T13:14:44;99387.66;;;15.22;38.53
13312;BME280;34033;48.672;9.376;2023-02-16T13:17:18;99384.06;;;15.21;38.70
13312;BME280;34033;48.672;9.376;2023-02-16T13:19:45;99376.00;;;15.20;38.51
13312;BME280;34033;48.672;9.376;2023-02-16T13:22:30;99374.41;;;15.29;38.84
13312;BME280;34033;48.672;9.376;2023-02-16T13:36:31;99370.44;;;15.98;37.13
13312;BME280;34033;48.672;9.376;2023-02-16T13:44:36;99376.84;;;16.23;37.55
13312;BME280;34033;48.672;9.376;2023-02-16T13:47:04;99369.56;;;16.36;37.79
13312;BME280;34033;48.672;9.376;2023-02-16T13:49:38;99373.59;;;16.42;37.31
13312;BME280;34033;48.672;9.376;2023-02-16T13:54:55;99381.63;;;16.61;37.00
13312;BME280;34033;48.672;9.376;2023-02-16T14:05:46;99362.38;;;17.22;35.94
13312;BME280;34033;48.672;9.376;2023-02-16T14:13:33;99356.47;;;17.58;34.75
13312;BME280;34033;48.672;9.376;2023-02-16T14:18:44;99348.97;;;17.33;34.79
13312;BME280;34033;48.672;9.376;2023-02-16T14:21:42;99351.03;;;17.29;34.43
13312;BME280;34033;48.672;9.376;2023-02-16T14:24:22;99354.72;;;17.16;34.96
13312;BME280;34033;48.672;9.376;2023-02-16T14:26:58;99353.53;;;17.09;34.90
13312;BME280;34033;48.672;9.376;2023-02-16T14:29:35;99349.56;;;17.00;34.86
13312;BME280;34033;48.672;9.376;2023-02-16T14:32:14;99357.28;;;16.89;33.57
13312;BME280;34033;48.672;9.376;2023-02-16T14:35:18;99358.22;;;16.64;34.74
13312;BME280;34033;48.672;9.376;2023-02-16T14:38:03;99359.84;;;16.62;34.59
13312;BME280;34033;48.672;9.376;2023-02-16T14:40:42;99359.81;;;16.58;34.41
13312;BME280;34033;48.672;9.376;2023-02-16T14:43:45;99358.25;;;16.43;34.48
13312;BME280;34033;48.672;9.376;2023-02-16T14:49:12;99364.31;;;16.35;36.07
13312;BME280;34033;48.672;9.376;2023-02-16T14:57:52;99372.78;;;16.38;37.66
13312;BME280;34033;48.672;9.376;2023-02-16T15:03:15;99383.31;;;16.09;38.00
13312;BME280;34033;48.672;9.376;2023-02-16T15:05:42;99390.97;;;16.05;38.32
13312;BME280;34033;48.672;9.376;2023-02-16T15:08:21;99391.38;;;15.90;38.62
13312;BME280;34033;48.672;9.376;2023-02-16T15:10:49;99389.78;;;15.81;39.23
13312;BME280;34033;48.672;9.376;2023-02-16T15:13:29;99391.81;;;15.70;38.91
13312;BME280;34033;48.672;9.376;2023-02-16T15:15:56;99391.41;;;15.75;39.32
13312;BME280;34033;48.672;9.376;2023-02-16T15:18:27;99382.50;;;15.77;39.29
13312;BME280;34033;48.672;9.376;2023-02-16T15:20:55;99388.56;;;15.75;38.58
13312;BME280;34033;48.672;9.376;2023-02-16T15:23:26;99382.94;;;15.68;38.06
13312;BME280;34033;48.672;9.376;2023-02-16T15:25:59;99386.53;;;15.72;40.75
13312;BME280;34033;48.672;9.376;2023-02-16T15:28:27;99393.00;;;15.69;39.06
13312;BME280;34033;48.672;9.376;2023-02-16T15:30:58;99391.38;;;15.58;39.41
13312;BME280;34033;48.672;9.376;2023-02-16T15:35:59;99395.34;;;15.39;40.00
13312;BME280;34033;48.672;9.376;2023-02-16T15:38:33;99387.28;;;15.34;40.16